Time;durP1;ratioP1;P1;durP2;ratioP2;P2;SDS_P1;SDS_P2;PMS_P1;PMS_P2;Temp;Humidity;BMP_temperature;BMP_pressure;BME280_temperature;BME280_humidity;BME280_pressure;Samples;Min_cycle;Max_cycle;Signal;HPM_P1;HPM_P2
2019/04/17 00:00:05;;;;;;;6.55;4.599999;;;;;;;5.97;57.34766;95465.94;;;;
2019/04/17 00:06:32;;;;;;;7.199999;4.75;;;;;;;5.83;57.56348;95466.02;;;;
2019/04/17 00:07:47;;;;;;;7.199999;4.75;;;;;;;5.83;57.56348;95466.02;;;;
2019/04/17 00:08:49;;;;;;;7.199999;4.75;;;;;;;5.83;57.56348;95466.02;;;;
2019/04/17 00:09:50;;;;;;;7.199999;4.75;;;;;;;5.83;57.56348;95466.02;;;;
2019/04/17 00:10:53;;;;;;;7.199999;4.75;;;;;;;5.83;57.56348;95466.02;;;;
2019/04/17 00:11:54;;;;;;;7.199999;4.75;;;;;;;5.83;57.56348;95466.02;;;;
2019/04/17 00:12:55;;;;;;;7.199999;4.75;;;;;;;5.83;57.56348;95466.02;;;;
2019/04/17 00:13:56;;;;;;;7.199999;4.75;;;;;;;5.83;57.56348;95466.02;;;;
2019/04/17 00:14:57;;;;;;;7.199999;4.75;;;;;;;5.83;57.56348;95466.02;;;;
2019/04/17 00:15:58;;;;;;;7.199999;4.75;;;;;;;5.83;57.56348;95466.02;;;;
2019/04/17 00:16:59;;;;;;;6.199999;4.85;;;;;;;5.65;58.08203;95467.86;;;;
2019/04/17 00:18:00;;;;;;;6.199999;4.85;;;;;;;5.65;58.08203;95467.86;;;;
2019/04/17 00:19:02;;;;;;;6.199999;4.85;;;;;;;5.65;58.08203;95467.86;;;;
2019/04/17 00:20:03;;;;;;;6.199999;4.85;;;;;;;5.65;58.08203;95467.86;;;;
2019/04/17 00:21:04;;;;;;;6.199999;4.85;;;;;;;5.65;58.08203;95467.86;;;;
2019/04/17 00:22:05;;;;;;;6.199999;4.85;;;;;;;5.65;58.08203;95467.86;;;;
2019/04/17 00:23:06;;;;;;;6.199999;4.85;;;;;;;5.65;58.08203;95467.86;;;;
2019/04/17 00:24:07;;;;;;;6.199999;4.85;;;;;;;5.65;58.08203;95467.86;;;;
2019/04/17 00:25:08;;;;;;;6.199999;4.85;;;;;;;5.65;58.08203;95467.86;;;;
2019/04/17 00:26:09;;;;;;;6.199999;4.85;;;;;;;5.65;58.08203;95467.86;;;;
2019/04/17 00:27:11;;;;;;;6.199999;4.85;;;;;;;5.65;58.08203;95467.86;;;;
2019/04/17 00:28:12;;;;;;;6.95;5.05;;;;;;;5.54;58.25781;95481.44;;;;
2019/04/17 00:29:13;;;;;;;6.95;5.05;;;;;;;5.54;58.25781;95481.44;;;;
2019/04/17 00:30:14;;;;;;;6.95;5.05;;;;;;;5.54;58.25781;95481.44;;;;
2019/04/17 00:31:15;;;;;;;6.95;5.05;;;;;;;5.54;58.25781;95481.44;;;;
2019/04/17 00:32:16;;;;;;;6.95;5.05;;;;;;;5.54;58.25781;95481.44;;;;
2019/04/17 00:33:17;;;;;;;6.95;5.05;;;;;;;5.54;58.25781;95481.44;;;;
2019/04/17 00:34:18;;;;;;;6.95;5.05;;;;;;;5.54;58.25781;95481.44;;;;
2019/04/17 00:35:21;;;;;;;6.95;5.05;;;;;;;5.54;58.25781;95481.44;;;;
2019/04/17 00:36:30;;;;;;;6.95;5.05;;;;;;;5.54;58.25781;95481.44;;;;
2019/04/17 00:37:38;;;;;;;6.95;5.05;;;;;;;5.54;58.25781;95481.44;;;;
2019/04/17 00:38:48;;;;;;;7.55;5.3;;;;;;;5.55;58.4082;95485.33;;;;
2019/04/17 00:39:54;;;;;;;7.55;5.3;;;;;;;5.55;58.4082;95485.33;;;;
2019/04/17 00:40:57;;;;;;;7.55;5.3;;;;;;;5.55;58.4082;95485.33;;;;
2019/04/17 00:42:07;;;;;;;7.55;5.3;;;;;;;5.55;58.4082;95485.33;;;;
2019/04/17 00:43:08;;;;;;;7.55;5.3;;;;;;;5.55;58.4082;95485.33;;;;
2019/04/17 00:44:09;;;;;;;7.55;5.3;;;;;;;5.55;58.4082;95485.33;;;;
2019/04/17 00:45:10;;;;;;;7.55;5.3;;;;;;;5.55;58.4082;95485.33;;;;
2019/04/17 00:46:12;;;;;;;7.55;5.3;;;;;;;5.55;58.4082;95485.33;;;;
2019/04/17 00:47:13;;;;;;;7.55;5.3;;;;;;;5.55;58.4082;95485.33;;;;
2019/04/17 00:48:14;;;;;;;7.55;5.3;;;;;;;5.55;58.4082;95485.33;;;;
2019/04/17 00:49:15;;;;;;;6.3;5.2;;;;;;;5.76;58.36328;95486.45;;;;
2019/04/17 00:50:16;;;;;;;6.3;5.2;;;;;;;5.76;58.36328;95486.45;;;;
2019/04/17 00:51:32;;;;;;;6.3;5.2;;;;;;;5.76;58.36328;95486.45;;;;
2019/04/17 00:52:39;;;;;;;6.3;5.2;;;;;;;5.76;58.36328;95486.45;;;;
2019/04/17 00:53:54;;;;;;;6.3;5.2;;;;;;;5.76;58.36328;95486.45;;;;
2019/04/17 00:55:00;;;;;;;6.3;5.2;;;;;;;5.76;58.36328;95486.45;;;;
2019/04/17 00:56:06;;;;;;;6.3;5.2;;;;;;;5.76;58.36328;95486.45;;;;
2019/04/17 01:02:27;;;;;;;6;5.199999;;;;;;;5.86;58.25879;95487.03;;;;
2019/04/17 01:03:30;;;;;;;6;5.199999;;;;;;;5.86;58.25879;95487.03;;;;
2019/04/17 01:04:33;;;;;;;6;5.199999;;;;;;;5.86;58.25879;95487.03;;;;
2019/04/17 01:05:34;;;;;;;6;5.199999;;;;;;;5.86;58.25879;95487.03;;;;
2019/04/17 01:06:35;;;;;;;6;5.199999;;;;;;;5.86;58.25879;95487.03;;;;
2019/04/17 01:07:37;;;;;;;6;5.199999;;;;;;;5.86;58.25879;95487.03;;;;
2019/04/17 01:08:38;;;;;;;6;5.199999;;;;;;;5.86;58.25879;95487.03;;;;
2019/04/17 01:09:39;;;;;;;6;5.199999;;;;;;;5.86;58.25879;95487.03;;;;
2019/04/17 01:10:40;;;;;;;6.400001;5.45;;;;;;;6.09;59.07715;95500.48;;;;
2019/04/17 01:11:41;;;;;;;6.400001;5.45;;;;;;;6.09;59.07715;95500.48;;;;
2019/04/17 01:12:42;;;;;;;6.400001;5.45;;;;;;;6.09;59.07715;95500.48;;;;
2019/04/17 01:13:44;;;;;;;6.400001;5.45;;;;;;;6.09;59.07715;95500.48;;;;
2019/04/17 01:14:45;;;;;;;6.400001;5.45;;;;;;;6.09;59.07715;95500.48;;;;
2019/04/17 01:15:46;;;;;;;6.400001;5.45;;;;;;;6.09;59.07715;95500.48;;;;
2019/04/17 01:16:47;;;;;;;6.400001;5.45;;;;;;;6.09;59.07715;95500.48;;;;
2019/04/17 01:17:48;;;;;;;6.400001;5.45;;;;;;;6.09;59.07715;95500.48;;;;
2019/04/17 01:18:49;;;;;;;6.400001;5.45;;;;;;;6.09;59.07715;95500.48;;;;
2019/04/17 01:19:51;;;;;;;6.400001;5.45;;;;;;;6.09;59.07715;95500.48;;;;
2019/04/17 01:20:52;;;;;;;8.05;6;;;;;;;6.23;58.72461;95490;;;;
2019/04/17 01:21:53;;;;;;;8.05;6;;;;;;;6.23;58.72461;95490;;;;
2019/04/17 01:22:54;;;;;;;8.05;6;;;;;;;6.23;58.72461;95490;;;;
2019/04/17 01:23:55;;;;;;;8.05;6;;;;;;;6.23;58.72461;95490;;;;
2019/04/17 01:24:56;;;;;;;8.05;6;;;;;;;6.23;58.72461;95490;;;;
2019/04/17 01:25:58;;;;;;;8.05;6;;;;;;;6.23;58.72461;95490;;;;
2019/04/17 01:26:59;;;;;;;8.05;6;;;;;;;6.23;58.72461;95490;;;;
2019/04/17 01:28:00;;;;;;;8.05;6;;;;;;;6.23;58.72461;95490;;;;
2019/04/17 01:29:01;;;;;;;8.05;6;;;;;;;6.23;58.72461;95490;;;;
2019/04/17 01:30:02;;;;;;;8.05;6;;;;;;;6.23;58.72461;95490;;;;
2019/04/17 01:31:04;;;;;;;7;5.799999;;;;;;;6.39;58.68262;95496.39;;;;
2019/04/17 01:32:06;;;;;;;7;5.799999;;;;;;;6.39;58.68262;95496.39;;;;
2019/04/17 01:33:07;;;;;;;7;5.799999;;;;;;;6.39;58.68262;95496.39;;;;
2019/04/17 01:34:08;;;;;;;7;5.799999;;;;;;;6.39;58.68262;95496.39;;;;
2019/04/17 01:35:12;;;;;;;7;5.799999;;;;;;;6.39;58.68262;95496.39;;;;
2019/04/17 01:36:14;;;;;;;7;5.799999;;;;;;;6.39;58.68262;95496.39;;;;
2019/04/17 01:37:15;;;;;;;7;5.799999;;;;;;;6.39;58.68262;95496.39;;;;
2019/04/17 01:43:29;;;;;;;7.2;6.2;;;;;;;6.45;58.85059;95503.63;;;;
2019/04/17 01:50:18;;;;;;;7.2;6.2;;;;;;;6.45;58.85059;95503.63;;;;
2019/04/17 01:52:06;;;;;;;7.2;6.2;;;;;;;6.45;58.85059;95503.63;;;;
2019/04/17 01:53:18;;;;;;;7.999999;6.2;;;;;;;6.61;59;95503.64;;;;
2019/04/17 01:54:32;;;;;;;7.999999;6.2;;;;;;;6.61;59;95503.64;;;;
2019/04/17 01:55:37;;;;;;;7.999999;6.2;;;;;;;6.61;59;95503.64;;;;
2019/04/17 02:02:23;;;;;;;7.999999;6.2;;;;;;;6.61;59;95503.64;;;;
2019/04/17 02:03:32;;;;;;;8.799999;7;;;;;;;6.7;59.05371;95501.98;;;;
2019/04/17 02:04:39;;;;;;;8.799999;7;;;;;;;6.7;59.05371;95501.98;;;;
2019/04/17 02:05:54;;;;;;;8.799999;7;;;;;;;6.7;59.05371;95501.98;;;;
2019/04/17 02:12:07;;;;;;;8.799999;7;;;;;;;6.7;59.05371;95501.98;;;;
2019/04/17 02:13:24;;;;;;;8.799999;7;;;;;;;6.7;59.05371;95501.98;;;;
2019/04/17 02:14:51;;;;;;;8.25;6.95;;;;;;;6.81;59.36816;95501.79;;;;
2019/04/17 02:21:00;;;;;;;8.25;6.95;;;;;;;6.81;59.36816;95501.79;;;;
2019/04/17 02:22:01;;;;;;;8.25;6.95;;;;;;;6.81;59.36816;95501.79;;;;
2019/04/17 02:23:02;;;;;;;8.25;6.95;;;;;;;6.81;59.36816;95501.79;;;;
2019/04/17 02:24:04;;;;;;;8.25;6.95;;;;;;;6.81;59.36816;95501.79;;;;
2019/04/17 02:25:05;;;;;;;9.75;7.349999;;;;;;;6.82;59.64648;95502.5;;;;
2019/04/17 02:26:06;;;;;;;9.75;7.349999;;;;;;;6.82;59.64648;95502.5;;;;
2019/04/17 02:27:07;;;;;;;9.75;7.349999;;;;;;;6.82;59.64648;95502.5;;;;
2019/04/17 02:28:08;;;;;;;9.75;7.349999;;;;;;;6.82;59.64648;95502.5;;;;
2019/04/17 02:29:10;;;;;;;9.75;7.349999;;;;;;;6.82;59.64648;95502.5;;;;
2019/04/17 02:30:11;;;;;;;9.75;7.349999;;;;;;;6.82;59.64648;95502.5;;;;
2019/04/17 02:31:12;;;;;;;9.75;7.349999;;;;;;;6.82;59.64648;95502.5;;;;
2019/04/17 02:32:13;;;;;;;9.75;7.349999;;;;;;;6.82;59.64648;95502.5;;;;
2019/04/17 02:33:15;;;;;;;9.75;7.349999;;;;;;;6.82;59.64648;95502.5;;;;
2019/04/17 02:34:16;;;;;;;9.75;7.349999;;;;;;;6.82;59.64648;95502.5;;;;
2019/04/17 02:35:17;;;;;;;9.949999;8.15;;;;;;;6.86;59.76855;95502.49;;;;
2019/04/17 02:36:18;;;;;;;9.949999;8.15;;;;;;;6.86;59.76855;95502.49;;;;
2019/04/17 02:37:40;;;;;;;9.949999;8.15;;;;;;;6.86;59.76855;95502.49;;;;
2019/04/17 02:38:46;;;;;;;9.949999;8.15;;;;;;;6.86;59.76855;95502.49;;;;
2019/04/17 02:39:53;;;;;;;9.949999;8.15;;;;;;;6.86;59.76855;95502.49;;;;
2019/04/17 02:41:17;;;;;;;9.949999;8.15;;;;;;;6.86;59.76855;95502.49;;;;
2019/04/17 02:43:28;;;;;;;9.949999;8.15;;;;;;;6.86;59.76855;95502.49;;;;
2019/04/17 02:50:00;;;;;;;8.7;7.65;;;;;;;6.81;59.94336;95506.32;;;;
2019/04/17 02:51:13;;;;;;;8.7;7.65;;;;;;;6.81;59.94336;95506.32;;;;
2019/04/17 02:52:18;;;;;;;8.7;7.65;;;;;;;6.81;59.94336;95506.32;;;;
2019/04/17 02:53:29;;;;;;;8.7;7.65;;;;;;;6.81;59.94336;95506.32;;;;
2019/04/17 02:54:30;;;;;;;8.7;7.65;;;;;;;6.81;59.94336;95506.32;;;;
2019/04/17 02:55:31;;;;;;;8.7;7.65;;;;;;;6.81;59.94336;95506.32;;;;
2019/04/17 02:56:33;;;;;;;10.1;8.400001;;;;;;;6.82;60.26367;95510.55;;;;
2019/04/17 02:57:34;;;;;;;10.1;8.400001;;;;;;;6.82;60.26367;95510.55;;;;
2019/04/17 02:58:35;;;;;;;10.1;8.400001;;;;;;;6.82;60.26367;95510.55;;;;
2019/04/17 02:59:36;;;;;;;10.1;8.400001;;;;;;;6.82;60.26367;95510.55;;;;
2019/04/17 03:00:37;;;;;;;10.1;8.400001;;;;;;;6.82;60.26367;95510.55;;;;
2019/04/17 03:01:38;;;;;;;10.1;8.400001;;;;;;;6.82;60.26367;95510.55;;;;
2019/04/17 03:02:39;;;;;;;10.1;8.400001;;;;;;;6.82;60.26367;95510.55;;;;
2019/04/17 03:03:40;;;;;;;10.1;8.400001;;;;;;;6.82;60.26367;95510.55;;;;
2019/04/17 03:04:41;;;;;;;10.1;8.400001;;;;;;;6.82;60.26367;95510.55;;;;
2019/04/17 03:05:43;;;;;;;10.1;8.400001;;;;;;;6.82;60.26367;95510.55;;;;
2019/04/17 03:06:44;;;;;;;10.1;8.400001;;;;;;;6.82;60.26367;95510.55;;;;
2019/04/17 03:07:45;;;;;;;10.1;8.400001;;;;;;;6.82;60.26367;95510.55;;;;
2019/04/17 03:08:46;;;;;;;10.1;8.400001;;;;;;;6.82;60.26367;95510.55;;;;
2019/04/17 03:09:47;;;;;;;10.1;8.400001;;;;;;;6.82;60.26367;95510.55;;;;
2019/04/17 03:10:48;;;;;;;10.1;8.400001;;;;;;;6.82;60.26367;95510.55;;;;
2019/04/17 03:11:49;;;;;;;10.1;8.400001;;;;;;;6.82;60.26367;95510.55;;;;
2019/04/17 03:12:50;;;;;;;10.1;8.400001;;;;;;;6.82;60.26367;95510.55;;;;
2019/04/17 03:13:51;;;;;;;10.1;8.400001;;;;;;;6.82;60.26367;95510.55;;;;
2019/04/17 03:14:53;;;;;;;10.1;8.400001;;;;;;;6.82;60.26367;95510.55;;;;
2019/04/17 03:15:54;;;;;;;10.1;8.400001;;;;;;;6.82;60.26367;95510.55;;;;
2019/04/17 03:16:55;;;;;;;10.1;8.400001;;;;;;;6.82;60.26367;95510.55;;;;
2019/04/17 03:17:56;;;;;;;10.05;8.6;;;;;;;6.55;60.79004;95519.2;;;;
2019/04/17 03:18:57;;;;;;;10.05;8.6;;;;;;;6.55;60.79004;95519.2;;;;
2019/04/17 03:19:58;;;;;;;10.05;8.6;;;;;;;6.55;60.79004;95519.2;;;;
2019/04/17 03:21:00;;;;;;;10.05;8.6;;;;;;;6.55;60.79004;95519.2;;;;
2019/04/17 03:22:01;;;;;;;10.05;8.6;;;;;;;6.55;60.79004;95519.2;;;;
2019/04/17 03:23:02;;;;;;;10.05;8.6;;;;;;;6.55;60.79004;95519.2;;;;
2019/04/17 03:24:03;;;;;;;10.05;8.6;;;;;;;6.55;60.79004;95519.2;;;;
2019/04/17 03:25:04;;;;;;;10.05;8.6;;;;;;;6.55;60.79004;95519.2;;;;
2019/04/17 03:26:06;;;;;;;10.05;8.6;;;;;;;6.55;60.79004;95519.2;;;;
2019/04/17 03:27:13;;;;;;;10.05;8.6;;;;;;;6.55;60.79004;95519.2;;;;
2019/04/17 03:28:20;;;;;;;10.35;8.399999;;;;;;;6.44;61.44531;95516.2;;;;
2019/04/17 03:29:21;;;;;;;10.35;8.399999;;;;;;;6.44;61.44531;95516.2;;;;
2019/04/17 03:30:26;;;;;;;10.35;8.399999;;;;;;;6.44;61.44531;95516.2;;;;
2019/04/17 03:31:33;;;;;;;10.35;8.399999;;;;;;;6.44;61.44531;95516.2;;;;
2019/04/17 03:32:35;;;;;;;10.35;8.399999;;;;;;;6.44;61.44531;95516.2;;;;
2019/04/17 03:33:36;;;;;;;10.35;8.399999;;;;;;;6.44;61.44531;95516.2;;;;
2019/04/17 03:34:37;;;;;;;10.35;8.399999;;;;;;;6.44;61.44531;95516.2;;;;
2019/04/17 03:35:38;;;;;;;10.35;8.399999;;;;;;;6.44;61.44531;95516.2;;;;
2019/04/17 03:36:39;;;;;;;10.35;8.399999;;;;;;;6.44;61.44531;95516.2;;;;
2019/04/17 03:37:40;;;;;;;10.35;8.399999;;;;;;;6.44;61.44531;95516.2;;;;
2019/04/17 03:38:41;;;;;;;11.6;8.950002;;;;;;;6.4;61.58887;95519.02;;;;
2019/04/17 03:39:42;;;;;;;11.6;8.950002;;;;;;;6.4;61.58887;95519.02;;;;
2019/04/17 03:40:43;;;;;;;11.6;8.950002;;;;;;;6.4;61.58887;95519.02;;;;
2019/04/17 03:41:44;;;;;;;11.6;8.950002;;;;;;;6.4;61.58887;95519.02;;;;
2019/04/17 03:42:45;;;;;;;11.6;8.950002;;;;;;;6.4;61.58887;95519.02;;;;
2019/04/17 03:43:47;;;;;;;11.6;8.950002;;;;;;;6.4;61.58887;95519.02;;;;
2019/04/17 03:44:48;;;;;;;11.6;8.950002;;;;;;;6.4;61.58887;95519.02;;;;
2019/04/17 03:45:49;;;;;;;11.6;8.950002;;;;;;;6.4;61.58887;95519.02;;;;
2019/04/17 03:50:58;;;;;;;12.25;9.55;;;;;;;6.3;61.74512;95531.05;;;;
2019/04/17 03:52:18;;;;;;;12.25;9.55;;;;;;;6.3;61.74512;95531.05;;;;
2019/04/17 03:53:40;;;;;;;12.25;9.55;;;;;;;6.3;61.74512;95531.05;;;;
2019/04/17 03:54:47;;;;;;;12.25;9.55;;;;;;;6.3;61.74512;95531.05;;;;
2019/04/17 03:55:52;;;;;;;12.25;9.55;;;;;;;6.3;61.74512;95531.05;;;;
2019/04/17 03:57:03;;;;;;;12.25;9.55;;;;;;;6.3;61.74512;95531.05;;;;
2019/04/17 03:58:08;;;;;;;12.25;9.55;;;;;;;6.3;61.74512;95531.05;;;;
2019/04/17 03:59:19;;;;;;;12.25;9.55;;;;;;;6.3;61.74512;95531.05;;;;
2019/04/17 04:00:25;;;;;;;11.65;9.15;;;;;;;6.24;61.97949;95526.61;;;;
2019/04/17 04:01:49;;;;;;;11.65;9.15;;;;;;;6.24;61.97949;95526.61;;;;
2019/04/17 04:03:12;;;;;;;11.65;9.15;;;;;;;6.24;61.97949;95526.61;;;;
2019/04/17 04:09:36;;;;;;;11.65;9.15;;;;;;;6.24;61.97949;95526.61;;;;
2019/04/17 04:10:42;;;;;;;11.65;9.15;;;;;;;6.24;61.97949;95526.61;;;;
2019/04/17 04:11:54;;;;;;;12.3;9.950001;;;;;;;6.13;62.77441;95533.78;;;;
2019/04/17 04:28:08;;;;;;;12.55;10;;;;;;;6.02;62.91699;95539.34;;;;
2019/04/17 04:29:36;;;;;;;12.55;10;;;;;;;6.02;62.91699;95539.34;;;;
2019/04/17 04:31:46;;;;;;;12.55;10;;;;;;;6.02;62.91699;95539.34;;;;
2019/04/17 04:32:59;;;;;;;12.55;10;;;;;;;6.02;62.91699;95539.34;;;;
2019/04/17 04:39:15;;;;;;;12.55;10;;;;;;;6.02;62.91699;95539.34;;;;
2019/04/17 04:40:22;;;;;;;12.55;10;;;;;;;6.02;62.91699;95539.34;;;;
2019/04/17 04:41:43;;;;;;;12.55;10;;;;;;;6.02;62.91699;95539.34;;;;
2019/04/17 04:42:53;;;;;;;12.25;10.1;;;;;;;6.07;63.4873;95554.3;;;;
2019/04/17 04:44:00;;;;;;;12.25;10.1;;;;;;;6.07;63.4873;95554.3;;;;
2019/04/17 04:50:12;;;;;;;12.25;10.1;;;;;;;6.07;63.4873;95554.3;;;;
2019/04/17 04:51:18;;;;;;;12.25;10.1;;;;;;;6.07;63.4873;95554.3;;;;
2019/04/17 04:52:19;;;;;;;12.25;10.1;;;;;;;6.07;63.4873;95554.3;;;;
2019/04/17 04:53:20;;;;;;;11.7;9.499999;;;;;;;6.25;63.42871;95563.01;;;;
2019/04/17 04:54:21;;;;;;;11.7;9.499999;;;;;;;6.25;63.42871;95563.01;;;;
2019/04/17 04:55:22;;;;;;;11.7;9.499999;;;;;;;6.25;63.42871;95563.01;;;;
2019/04/17 04:56:23;;;;;;;11.7;9.499999;;;;;;;6.25;63.42871;95563.01;;;;
2019/04/17 04:57:24;;;;;;;11.7;9.499999;;;;;;;6.25;63.42871;95563.01;;;;
2019/04/17 04:58:25;;;;;;;11.7;9.499999;;;;;;;6.25;63.42871;95563.01;;;;
2019/04/17 04:59:26;;;;;;;11.7;9.499999;;;;;;;6.25;63.42871;95563.01;;;;
2019/04/17 05:00:27;;;;;;;11.7;9.499999;;;;;;;6.25;63.42871;95563.01;;;;
2019/04/17 05:01:29;;;;;;;11.7;9.499999;;;;;;;6.25;63.42871;95563.01;;;;
2019/04/17 05:02:30;;;;;;;11.7;9.499999;;;;;;;6.25;63.42871;95563.01;;;;
2019/04/17 05:03:31;;;;;;;11.7;9.499999;;;;;;;6.25;63.42871;95563.01;;;;
2019/04/17 05:04:52;;;;;;;14.15;9.400001;;;;;;;6.67;63.37207;95573.52;;;;
2019/04/17 05:06:13;;;;;;;14.15;9.400001;;;;;;;6.67;63.37207;95573.52;;;;
2019/04/17 05:07:24;;;;;;;14.15;9.400001;;;;;;;6.67;63.37207;95573.52;;;;
2019/04/17 05:08:45;;;;;;;14.15;9.400001;;;;;;;6.67;63.37207;95573.52;;;;
2019/04/17 05:09:54;;;;;;;14.15;9.400001;;;;;;;6.67;63.37207;95573.52;;;;
2019/04/17 05:16:05;;;;;;;13.65;9.449999;;;;;;;7.16;63.01758;95577.56;;;;
2019/04/17 05:17:09;;;;;;;13.65;9.449999;;;;;;;7.16;63.01758;95577.56;;;;
2019/04/17 05:18:10;;;;;;;13.65;9.449999;;;;;;;7.16;63.01758;95577.56;;;;
2019/04/17 05:19:11;;;;;;;13.65;9.449999;;;;;;;7.16;63.01758;95577.56;;;;
2019/04/17 05:20:12;;;;;;;13.65;9.449999;;;;;;;7.16;63.01758;95577.56;;;;
2019/04/17 05:21:13;;;;;;;13.65;9.449999;;;;;;;7.16;63.01758;95577.56;;;;
2019/04/17 05:22:14;;;;;;;13.65;9.449999;;;;;;;7.16;63.01758;95577.56;;;;
2019/04/17 05:23:15;;;;;;;13.65;9.449999;;;;;;;7.16;63.01758;95577.56;;;;
2019/04/17 05:24:16;;;;;;;13.65;9.449999;;;;;;;7.16;63.01758;95577.56;;;;
2019/04/17 05:25:26;;;;;;;12.6;9.700002;;;;;;;7.81;62.56836;95588.16;;;;
2019/04/17 05:26:32;;;;;;;12.6;9.700002;;;;;;;7.81;62.56836;95588.16;;;;
2019/04/17 05:27:41;;;;;;;12.6;9.700002;;;;;;;7.81;62.56836;95588.16;;;;
2019/04/17 05:28:51;;;;;;;12.6;9.700002;;;;;;;7.81;62.56836;95588.16;;;;
2019/04/17 05:30:16;;;;;;;12.6;9.700002;;;;;;;7.81;62.56836;95588.16;;;;
2019/04/17 05:31:25;;;;;;;12.6;9.700002;;;;;;;7.81;62.56836;95588.16;;;;
2019/04/17 05:32:47;;;;;;;12.6;9.700002;;;;;;;7.81;62.56836;95588.16;;;;
2019/04/17 05:33:50;;;;;;;12.6;9.700002;;;;;;;7.81;62.56836;95588.16;;;;
2019/04/17 05:34:51;;;;;;;12.6;9.700002;;;;;;;7.81;62.56836;95588.16;;;;
2019/04/17 05:35:56;;;;;;;13.25;9.9;;;;;;;8.43;61.95313;95604.1;;;;
2019/04/17 05:36:57;;;;;;;13.25;9.9;;;;;;;8.43;61.95313;95604.1;;;;
2019/04/17 05:37:58;;;;;;;13.25;9.9;;;;;;;8.43;61.95313;95604.1;;;;
2019/04/17 05:38:59;;;;;;;13.25;9.9;;;;;;;8.43;61.95313;95604.1;;;;
2019/04/17 05:40:01;;;;;;;13.25;9.9;;;;;;;8.43;61.95313;95604.1;;;;
2019/04/17 05:41:02;;;;;;;13.25;9.9;;;;;;;8.43;61.95313;95604.1;;;;
2019/04/17 05:42:03;;;;;;;13.25;9.9;;;;;;;8.43;61.95313;95604.1;;;;
2019/04/17 05:43:04;;;;;;;13.25;9.9;;;;;;;8.43;61.95313;95604.1;;;;
2019/04/17 05:44:06;;;;;;;13.25;9.9;;;;;;;8.43;61.95313;95604.1;;;;
2019/04/17 05:45:07;;;;;;;13.25;9.9;;;;;;;8.43;61.95313;95604.1;;;;
2019/04/17 05:46:08;;;;;;;13.25;9.9;;;;;;;8.43;61.95313;95604.1;;;;
2019/04/17 05:47:09;;;;;;;12.8;10.45;;;;;;;9.06;61.4541;95604.94;;;;
2019/04/17 05:48:10;;;;;;;12.8;10.45;;;;;;;9.06;61.4541;95604.94;;;;
2019/04/17 05:49:11;;;;;;;12.8;10.45;;;;;;;9.06;61.4541;95604.94;;;;
2019/04/17 05:50:12;;;;;;;12.8;10.45;;;;;;;9.06;61.4541;95604.94;;;;
2019/04/17 05:51:13;;;;;;;12.8;10.45;;;;;;;9.06;61.4541;95604.94;;;;
2019/04/17 05:52:14;;;;;;;12.8;10.45;;;;;;;9.06;61.4541;95604.94;;;;
2019/04/17 05:53:15;;;;;;;12.8;10.45;;;;;;;9.06;61.4541;95604.94;;;;
2019/04/17 05:54:16;;;;;;;12.8;10.45;;;;;;;9.06;61.4541;95604.94;;;;
2019/04/17 05:55:18;;;;;;;12.8;10.45;;;;;;;9.06;61.4541;95604.94;;;;
2019/04/17 05:56:19;;;;;;;12.8;10.45;;;;;;;9.06;61.4541;95604.94;;;;
2019/04/17 05:57:20;;;;;;;10.7;9.6;;;;;;;9.54;61.0498;95606.49;;;;
2019/04/17 05:58:21;;;;;;;10.7;9.6;;;;;;;9.54;61.0498;95606.49;;;;
2019/04/17 05:59:22;;;;;;;10.7;9.6;;;;;;;9.54;61.0498;95606.49;;;;
2019/04/17 06:00:23;;;;;;;10.7;9.6;;;;;;;9.54;61.0498;95606.49;;;;
2019/04/17 06:06:41;;;;;;;10.7;9.6;;;;;;;9.54;61.0498;95606.49;;;;
2019/04/17 06:07:49;;;;;;;11.45;10.1;;;;;;;10.17;60.46191;95616.55;;;;
2019/04/17 06:08:55;;;;;;;11.45;10.1;;;;;;;10.17;60.46191;95616.55;;;;
2019/04/17 06:09:56;;;;;;;11.45;10.1;;;;;;;10.17;60.46191;95616.55;;;;
2019/04/17 06:11:03;;;;;;;11.45;10.1;;;;;;;10.17;60.46191;95616.55;;;;
2019/04/17 06:16:52;;;;;;;11.45;10.1;;;;;;;10.17;60.46191;95616.55;;;;
2019/04/17 06:18:19;;;;;;;11.45;10.1;;;;;;;10.17;60.46191;95616.55;;;;
2019/04/17 06:19:27;;;;;;;12;10.65;;;;;;;10.72;59.87305;95623.94;;;;
2019/04/17 06:20:43;;;;;;;12;10.65;;;;;;;10.72;59.87305;95623.94;;;;
2019/04/17 06:22:23;;;;;;;12;10.65;;;;;;;10.72;59.87305;95623.94;;;;
2019/04/17 06:23:48;;;;;;;12;10.65;;;;;;;10.72;59.87305;95623.94;;;;
2019/04/17 06:24:53;;;;;;;12;10.65;;;;;;;10.72;59.87305;95623.94;;;;
2019/04/17 06:26:07;;;;;;;12;10.65;;;;;;;10.72;59.87305;95623.94;;;;
2019/04/17 06:27:56;;;;;;;12;10.65;;;;;;;10.72;59.87305;95623.94;;;;
2019/04/17 06:28:57;;;;;;;13.7;11.9;;;;;;;11.28;59.56152;95627.21;;;;
2019/04/17 06:29:58;;;;;;;13.7;11.9;;;;;;;11.28;59.56152;95627.21;;;;
2019/04/17 06:30:59;;;;;;;13.7;11.9;;;;;;;11.28;59.56152;95627.21;;;;
2019/04/17 06:32:01;;;;;;;13.7;11.9;;;;;;;11.28;59.56152;95627.21;;;;
2019/04/17 06:33:02;;;;;;;13.7;11.9;;;;;;;11.28;59.56152;95627.21;;;;
2019/04/17 06:34:03;;;;;;;13.7;11.9;;;;;;;11.28;59.56152;95627.21;;;;
2019/04/17 06:35:05;;;;;;;13.7;11.9;;;;;;;11.28;59.56152;95627.21;;;;
2019/04/17 06:36:06;;;;;;;13.7;11.9;;;;;;;11.28;59.56152;95627.21;;;;
2019/04/17 06:37:07;;;;;;;13.7;11.9;;;;;;;11.28;59.56152;95627.21;;;;
2019/04/17 06:38:08;;;;;;;13.7;11.9;;;;;;;11.28;59.56152;95627.21;;;;
2019/04/17 06:39:09;;;;;;;13.7;11.9;;;;;;;11.28;59.56152;95627.21;;;;
2019/04/17 06:40:10;;;;;;;16.4;12.55;;;;;;;12.14;58.86035;95623.21;;;;
2019/04/17 06:41:11;;;;;;;16.4;12.55;;;;;;;12.14;58.86035;95623.21;;;;
2019/04/17 06:42:12;;;;;;;16.4;12.55;;;;;;;12.14;58.86035;95623.21;;;;
2019/04/17 06:43:13;;;;;;;16.4;12.55;;;;;;;12.14;58.86035;95623.21;;;;
2019/04/17 06:44:14;;;;;;;16.4;12.55;;;;;;;12.14;58.86035;95623.21;;;;
2019/04/17 06:45:44;;;;;;;16.4;12.55;;;;;;;12.14;58.86035;95623.21;;;;
2019/04/17 06:46:55;;;;;;;16.4;12.55;;;;;;;12.14;58.86035;95623.21;;;;
2019/04/17 06:48:05;;;;;;;16.4;12.55;;;;;;;12.14;58.86035;95623.21;;;;
2019/04/17 06:49:15;;;;;;;16.4;12.55;;;;;;;12.14;58.86035;95623.21;;;;
2019/04/17 06:50:38;;;;;;;15.55;13.2;;;;;;;13.27;57.78809;95625.14;;;;
2019/04/17 06:51:51;;;;;;;15.55;13.2;;;;;;;13.27;57.78809;95625.14;;;;
2019/04/17 06:52:59;;;;;;;15.55;13.2;;;;;;;13.27;57.78809;95625.14;;;;
2019/04/17 06:54:16;;;;;;;15.55;13.2;;;;;;;13.27;57.78809;95625.14;;;;
2019/04/17 06:55:23;;;;;;;15.55;13.2;;;;;;;13.27;57.78809;95625.14;;;;
2019/04/17 06:56:30;;;;;;;15.55;13.2;;;;;;;13.27;57.78809;95625.14;;;;
2019/04/17 06:57:37;;;;;;;15.55;13.2;;;;;;;13.27;57.78809;95625.14;;;;
2019/04/17 07:13:16;;;;;;;20.45;16.7;;;;;;;14.21;56.83887;95630.59;;;;
2019/04/17 07:14:24;;;;;;;20.45;16.7;;;;;;;14.21;56.83887;95630.59;;;;
2019/04/17 07:15:37;;;;;;;20.45;16.7;;;;;;;14.21;56.83887;95630.59;;;;
2019/04/17 07:16:45;;;;;;;20.45;16.7;;;;;;;14.21;56.83887;95630.59;;;;
2019/04/17 07:17:55;;;;;;;20.45;16.7;;;;;;;14.21;56.83887;95630.59;;;;
2019/04/17 07:19:07;;;;;;;20.45;16.7;;;;;;;14.21;56.83887;95630.59;;;;
2019/04/17 07:25:32;;;;;;;20.45;16.7;;;;;;;14.21;56.83887;95630.59;;;;
2019/04/17 07:26:38;;;;;;;20.45;16.7;;;;;;;14.21;56.83887;95630.59;;;;
2019/04/17 07:27:48;;;;;;;20.45;16.7;;;;;;;14.21;56.83887;95630.59;;;;
2019/04/17 07:29:53;;;;;;;20.45;16.7;;;;;;;14.21;56.83887;95630.59;;;;
2019/04/17 07:32:06;;;;;;;20.45;16.7;;;;;;;14.21;56.83887;95630.59;;;;
2019/04/17 07:33:14;;;;;;;20.45;16.7;;;;;;;14.21;56.83887;95630.59;;;;
2019/04/17 07:34:38;;;;;;;20.45;16.7;;;;;;;14.21;56.83887;95630.59;;;;
2019/04/17 07:35:45;;;;;;;20.45;16.7;;;;;;;14.21;56.83887;95630.59;;;;
2019/04/17 07:37:14;;;;;;;20.45;16.7;;;;;;;14.21;56.83887;95630.59;;;;
2019/04/17 07:41:51;;;;;;;20.45;16.7;;;;;;;14.21;56.83887;95630.59;;;;
2019/04/17 07:42:56;;;;;;;20.45;16.7;;;;;;;14.21;56.83887;95630.59;;;;
2019/04/17 07:44:01;;;;;;;20.45;16.7;;;;;;;14.21;56.83887;95630.59;;;;
2019/04/17 07:45:09;;;;;;;20.45;16.7;;;;;;;14.21;56.83887;95630.59;;;;
